Time;durP1;ratioP1;P1;durP2;ratioP2;P2;SDS_P1;SDS_P2;PMS_P1;PMS_P2;Temp;Humidity;BMP_temperature;BMP_pressure;BME280_temperature;BME280_humidity;BME280_pressure;Samples;Min_cycle;Max_cycle;Signal;HPM_P1;HPM_P2
2023/06/28 00:00:11;;;;;;;12.02;4.85;;;12.30;99.90;;;;;;5053838;28;20070;-46
2023/06/28 00:02:37;;;;;;;12.93;4.78;;;12.10;99.90;;;;;;5071598;28;20780;-47
2023/06/28 00:05:04;;;;;;;9.13;5.10;;;12.00;99.90;;;;;;5071018;28;20602;-46
2023/06/28 00:07:30;;;;;;;10.50;4.57;;;12.20;99.90;;;;;;5072469;28;20085;-49
2023/06/28 00:09:56;;;;;;;11.65;5.13;;;12.00;99.90;;;;;;5071246;28;20043;-50
2023/06/28 00:12:21;;;;;;;8.80;4.40;;;12.10;99.90;;;;;;5071342;28;20089;-51
2023/06/28 00:14:47;;;;;;;11.05;4.95;;;12.20;99.90;;;;;;5072235;28;20054;-47
2023/06/28 00:17:13;;;;;;;11.23;4.70;;;11.90;99.90;;;;;;5072389;28;20291;-46
2023/06/28 00:19:47;;;;;;;10.35;4.78;;;12.00;99.90;;;;;;5072252;28;20059;-46
2023/06/28 00:22:16;;;;;;;10.90;5.78;;;12.10;99.90;;;;;;5072717;28;20044;-51
2023/06/28 00:24:42;;;;;;;10.52;4.25;;;12.20;99.90;;;;;;5071778;28;20036;-48
2023/06/28 00:27:11;;;;;;;10.30;5.47;;;12.00;99.90;;;;;;5071410;28;20055;-46
2023/06/28 00:29:37;;;;;;;15.30;5.93;;;12.20;99.90;;;;;;5071055;28;20672;-46
2023/06/28 00:32:03;;;;;;;9.35;5.30;;;12.00;99.90;;;;;;5072289;28;20054;-48
2023/06/28 00:34:29;;;;;;;9.57;5.70;;;12.10;99.90;;;;;;5071341;28;20036;-47
2023/06/28 00:36:55;;;;;;;12.18;5.80;;;12.00;99.90;;;;;;5073353;28;20043;-47
2023/06/28 00:39:21;;;;;;;13.88;5.47;;;12.00;99.90;;;;;;5075135;28;20040;-46
2023/06/28 00:41:46;;;;;;;11.20;5.65;;;11.90;99.90;;;;;;5076099;28;20079;-51
2023/06/28 00:44:12;;;;;;;14.75;7.97;;;12.20;99.90;;;;;;5057356;28;20035;-47
2023/06/28 00:46:38;;;;;;;12.25;5.35;;;12.20;99.90;;;;;;5058091;28;20036;-52
2023/06/28 00:49:04;;;;;;;9.88;5.45;;;12.10;99.90;;;;;;5076983;28;20054;-48
2023/06/28 00:51:31;;;;;;;9.23;5.70;;;12.00;99.90;;;;;;5076815;28;20071;-46
2023/06/28 00:54:00;;;;;;;11.35;5.18;;;12.10;99.90;;;;;;5075640;28;20048;-46
2023/06/28 00:56:27;;;;;;;14.18;6.25;;;12.20;99.90;;;;;;5076227;28;20413;-51
2023/06/28 00:58:53;;;;;;;15.95;6.93;;;12.10;99.90;;;;;;5056758;28;20515;-48
2023/06/28 01:01:19;;;;;;;13.13;7.22;;;12.20;99.90;;;;;;5075933;28;20055;-47
2023/06/28 01:03:45;;;;;;;12.25;6.90;;;12.10;99.90;;;;;;5057847;28;20043;-48
2023/06/28 01:06:12;;;;;;;9.98;5.90;;;12.20;99.90;;;;;;5075807;28;20397;-45
2023/06/28 01:08:42;;;;;;;14.95;6.22;;;12.20;99.90;;;;;;5057086;28;20516;-46
2023/06/28 01:11:09;;;;;;;11.75;6.43;;;12.20;99.90;;;;;;5074579;28;20047;-47
2023/06/28 01:13:36;;;;;;;10.45;6.85;;;12.20;99.90;;;;;;5075328;28;20032;-47
2023/06/28 01:16:02;;;;;;;13.25;6.47;;;12.10;99.90;;;;;;5057784;28;20122;-47
2023/06/28 01:18:29;;;;;;;11.55;6.18;;;12.20;99.90;;;;;;5073918;28;20538;-48
2023/06/28 01:20:56;;;;;;;12.70;6.10;;;12.10;99.90;;;;;;5076202;28;20114;-46
2023/06/28 01:23:25;;;;;;;13.98;6.50;;;12.20;99.90;;;;;;5074600;28;20071;-46
2023/06/28 01:25:52;;;;;;;14.95;7.07;;;12.20;99.90;;;;;;5074807;28;20127;-46
2023/06/28 01:28:19;;;;;;;18.17;6.78;;;12.30;99.90;;;;;;5074899;28;20040;-46
2023/06/28 01:30:48;;;;;;;11.50;6.10;;;12.20;99.90;;;;;;5074926;28;20044;-46
2023/06/28 01:33:17;;;;;;;14.68;6.60;;;12.30;99.90;;;;;;5075168;28;20170;-46
2023/06/28 01:35:43;;;;;;;12.13;6.82;;;12.30;99.90;;;;;;5074383;28;20048;-47
2023/06/28 01:38:10;;;;;;;15.10;6.65;;;12.20;99.90;;;;;;5074356;28;20059;-46
2023/06/28 01:40:37;;;;;;;12.38;6.72;;;12.20;99.90;;;;;;5073199;28;20401;-46
2023/06/28 01:43:06;;;;;;;15.32;7.72;;;12.40;99.90;;;;;;5074687;28;20776;-48
2023/06/28 01:45:35;;;;;;;12.82;7.13;;;12.30;99.90;;;;;;5056506;28;20533;-46
2023/06/28 01:48:02;;;;;;;15.13;6.68;;;12.40;99.90;;;;;;5056352;28;20554;-46
2023/06/28 01:50:29;;;;;;;15.85;6.80;;;12.50;99.90;;;;;;5056981;28;20036;-47
2023/06/28 01:53:00;;;;;;;12.15;6.63;;;12.60;99.90;;;;;;5074190;28;20052;-46
2023/06/28 01:55:26;;;;;;;16.00;7.30;;;12.30;99.90;;;;;;5073406;28;20044;-46
2023/06/28 01:57:55;;;;;;;9.85;6.85;;;12.50;99.90;;;;;;5074048;28;20526;-47
2023/06/28 02:00:21;;;;;;;14.02;7.18;;;12.50;99.90;;;;;;5075526;28;20455;-46
2023/06/28 02:02:46;;;;;;;11.57;7.28;;;12.40;99.90;;;;;;5073706;28;20044;-51
2023/06/28 02:05:12;;;;;;;12.60;6.70;;;12.30;99.90;;;;;;5076101;28;20051;-46
2023/06/28 02:07:38;;;;;;;14.30;7.45;;;12.40;99.90;;;;;;5074819;28;20058;-46
2023/06/28 02:10:05;;;;;;;14.30;6.72;;;12.40;99.90;;;;;;5074451;28;20112;-46
2023/06/28 02:12:30;;;;;;;12.57;6.95;;;12.50;99.90;;;;;;5073804;28;20043;-46
2023/06/28 02:14:56;;;;;;;15.57;7.70;;;12.40;99.90;;;;;;5074232;28;20445;-51
2023/06/28 02:17:22;;;;;;;12.40;6.80;;;12.50;99.90;;;;;;5057256;28;20040;-46
2023/06/28 02:19:48;;;;;;;10.73;6.60;;;12.50;99.90;;;;;;5075088;28;20044;-50
2023/06/28 02:22:16;;;;;;;17.35;7.20;;;12.60;99.90;;;;;;5075332;28;20103;-46
2023/06/28 02:24:42;;;;;;;11.95;7.22;;;12.40;99.90;;;;;;5074164;28;20511;-47
2023/06/28 02:27:11;;;;;;;12.77;7.00;;;12.60;99.90;;;;;;5073781;28;20465;-47
2023/06/28 02:29:37;;;;;;;17.95;7.38;;;12.60;99.90;;;;;;5074675;28;20511;-48
2023/06/28 02:32:03;;;;;;;13.55;7.45;;;12.60;99.90;;;;;;5073820;28;20047;-50
2023/06/28 02:34:29;;;;;;;17.88;7.72;;;12.60;99.90;;;;;;5073648;28;20101;-47
2023/06/28 02:36:55;;;;;;;11.40;6.55;;;12.70;99.90;;;;;;5073366;28;20554;-50
2023/06/28 02:39:22;;;;;;;10.20;6.40;;;14.20;99.90;;;;;;5074575;28;20548;-47
2023/06/28 02:41:48;;;;;;;12.13;7.55;;;12.60;99.90;;;;;;5074348;28;20044;-47
2023/06/28 02:44:15;;;;;;;15.35;6.90;;;12.50;99.90;;;;;;5073245;28;20063;-46
2023/06/28 02:46:40;;;;;;;11.02;7.25;;;12.50;99.90;;;;;;5073019;28;20105;-49
2023/06/28 02:49:07;;;;;;;14.50;7.47;;;12.80;99.90;;;;;;5073876;28;20043;-46
2023/06/28 02:51:32;;;;;;;15.32;7.82;;;12.70;99.90;;;;;;5074043;28;20139;-47
2023/06/28 02:53:59;;;;;;;16.98;6.97;;;12.60;99.90;;;;;;5072753;28;20059;-47
2023/06/28 02:56:25;;;;;;;11.45;6.30;;;12.90;99.90;;;;;;5054991;28;20130;-48
2023/06/28 02:58:51;;;;;;;14.02;6.32;;;12.90;99.90;;;;;;5072923;28;20043;-50
2023/06/28 03:01:18;;;;;;;12.68;6.22;;;12.90;99.90;;;;;;5072876;28;20064;-46
2023/06/28 03:03:44;;;;;;;11.88;6.18;;;13.00;99.90;;;;;;5073493;28;20040;-46
2023/06/28 03:06:09;;;;;;;12.80;6.35;;;13.00;99.90;;;;;;5074298;28;20054;-47
2023/06/28 03:08:35;;;;;;;14.63;6.03;;;13.30;99.90;;;;;;5073187;28;20146;-47
2023/06/28 03:11:01;;;;;;;16.00;5.65;;;13.40;99.90;;;;;;5072725;28;20295;-53
2023/06/28 03:13:26;;;;;;;13.60;5.72;;;13.30;99.90;;;;;;5072335;28;20485;-52
2023/06/28 03:15:52;;;;;;;12.20;5.40;;;13.60;99.90;;;;;;5055380;28;20489;-53
2023/06/28 03:18:18;;;;;;;11.55;5.18;;;13.40;99.90;;;;;;5072026;28;20059;-53
2023/06/28 03:20:44;;;;;;;12.50;5.57;;;13.70;99.90;;;;;;5073358;28;20071;-55
2023/06/28 03:23:09;;;;;;;9.68;5.10;;;13.50;99.90;;;;;;5074087;28;20523;-52
2023/06/28 03:25:35;;;;;;;9.98;4.97;;;13.50;99.90;;;;;;5071506;28;20048;-52
2023/06/28 03:28:02;;;;;;;11.48;5.30;;;13.50;99.90;;;;;;5071915;28;20048;-54
2023/06/28 03:30:28;;;;;;;10.00;4.68;;;13.50;99.90;;;;;;5071834;28;20052;-54
2023/06/28 03:32:53;;;;;;;9.18;5.18;;;13.60;99.90;;;;;;5071821;28;20466;-55
2023/06/28 03:35:19;;;;;;;8.90;4.03;;;13.60;99.90;;;;;;5072700;28;20040;-55
2023/06/28 03:37:52;;;;;;;9.15;4.00;;;13.80;99.90;;;;;;5054697;28;20044;-52
2023/06/28 03:40:18;;;;;;;10.95;4.22;;;13.80;99.90;;;;;;5072131;28;20055;-55
2023/06/28 03:42:43;;;;;;;9.00;4.68;;;13.90;99.90;;;;;;5072618;28;20074;-55
2023/06/28 03:45:10;;;;;;;9.38;4.32;;;13.80;99.90;;;;;;5073263;28;20047;-54
2023/06/28 03:47:36;;;;;;;10.80;4.22;;;13.70;99.90;;;;;;5072661;28;20096;-54
2023/06/28 03:50:02;;;;;;;9.20;4.50;;;13.80;99.90;;;;;;5072609;28;22156;-54
2023/06/28 03:52:28;;;;;;;15.35;4.38;;;13.70;99.90;;;;;;5073762;28;20130;-54
2023/06/28 03:54:54;;;;;;;11.25;4.72;;;13.70;99.90;;;;;;5072649;28;20101;-49
2023/06/28 03:57:23;;;;;;;9.73;4.28;;;13.70;99.90;;;;;;5071934;28;20067;-53
2023/06/28 03:59:48;;;;;;;7.53;3.95;;;13.60;99.90;;;;;;5072647;28;20531;-54
2023/06/28 04:02:15;;;;;;;9.82;4.20;;;13.70;99.90;;;;;;5072488;28;20052;-52
2023/06/28 04:04:40;;;;;;;10.95;4.05;;;13.90;99.90;;;;;;5054186;28;20036;-54
2023/06/28 04:07:07;;;;;;;14.00;4.63;;;13.60;99.90;;;;;;5071404;28;20047;-54
2023/06/28 04:09:33;;;;;;;11.73;4.45;;;13.90;99.90;;;;;;5071700;28;20032;-54
2023/06/28 04:11:59;;;;;;;13.73;4.30;;;13.60;99.90;;;;;;5070189;28;20046;-51
2023/06/28 04:14:25;;;;;;;8.27;4.45;;;14.30;99.90;;;;;;5072698;28;20319;-54
2023/06/28 04:16:51;;;;;;;10.98;4.85;;;13.80;99.90;;;;;;5071387;28;20044;-55
2023/06/28 04:19:17;;;;;;;13.73;4.93;;;13.70;99.90;;;;;;5071395;28;20047;-54
2023/06/28 04:21:43;;;;;;;10.40;4.85;;;13.70;99.90;;;;;;5053974;28;20560;-54
2023/06/28 04:24:09;;;;;;;10.88;4.88;;;13.90;99.90;;;;;;5072494;28;20040;-55
2023/06/28 04:26:35;;;;;;;12.95;5.40;;;13.60;99.90;;;;;;5071255;28;20036;-54
2023/06/28 04:29:00;;;;;;;13.32;5.25;;;13.90;99.90;;;;;;5071355;28;20131;-54
2023/06/28 04:31:27;;;;;;;13.38;5.70;;;13.80;99.90;;;;;;5070931;28;20097;-54
2023/06/28 04:33:55;;;;;;;9.88;5.22;;;13.80;99.90;;;;;;5071745;28;20036;-53
2023/06/28 04:36:21;;;;;;;12.00;5.38;;;13.80;99.90;;;;;;5071996;28;20125;-52
2023/06/28 04:38:54;;;;;;;9.50;5.68;;;13.80;99.90;;;;;;5071001;28;20036;-54
2023/06/28 04:41:21;;;;;;;15.60;6.40;;;13.80;99.90;;;;;;5070999;28;20461;-52
2023/06/28 04:43:47;;;;;;;12.73;6.22;;;14.00;99.90;;;;;;5071081;28;20040;-53
2023/06/28 04:46:13;;;;;;;21.00;7.18;;;13.80;99.90;;;;;;5070550;28;20044;-52
2023/06/28 04:48:43;;;;;;;14.48;6.30;;;14.00;99.90;;;;;;5072130;28;20032;-51
2023/06/28 04:51:09;;;;;;;12.32;6.07;;;13.90;99.90;;;;;;5073010;28;21149;-54
2023/06/28 04:53:35;;;;;;;11.90;6.35;;;14.10;99.90;;;;;;5050476;28;20170;-53
2023/06/28 04:56:01;;;;;;;12.70;6.03;;;14.20;99.90;;;;;;5052149;28;20153;-52
2023/06/28 04:58:27;;;;;;;14.45;5.82;;;14.10;99.90;;;;;;5051058;28;20044;-52
2023/06/28 05:00:56;;;;;;;8.82;5.30;;;14.20;99.90;;;;;;5051260;28;20056;-52
2023/06/28 05:03:27;;;;;;;9.93;4.93;;;14.20;99.90;;;;;;5050903;28;20370;-52
2023/06/28 05:05:56;;;;;;;10.23;4.50;;;14.20;99.90;;;;;;5050731;28;20560;-50
2023/06/28 05:08:23;;;;;;;9.30;4.70;;;14.30;99.90;;;;;;5033160;28;20055;-52
2023/06/28 05:10:49;;;;;;;8.63;4.72;;;14.20;99.90;;;;;;5050609;28;20121;-51
2023/06/28 05:13:15;;;;;;;9.88;5.50;;;14.40;99.90;;;;;;5051072;28;21440;-48
2023/06/28 05:15:40;;;;;;;9.95;5.22;;;14.30;99.90;;;;;;5052560;28;20048;-51
2023/06/28 05:18:06;;;;;;;10.20;4.97;;;14.50;99.90;;;;;;5050916;28;20574;-51
2023/06/28 05:20:32;;;;;;;11.50;5.68;;;14.50;99.90;;;;;;5051678;28;20072;-49
2023/06/28 05:23:16;;;;;;;10.88;5.55;;;14.40;99.90;;;;;;5054475;28;20332;-52
2023/06/28 05:25:43;;;;;;;8.82;5.95;;;14.30;99.90;;;;;;5054298;28;20594;-47
2023/06/28 05:28:10;;;;;;;10.00;5.85;;;14.40;99.90;;;;;;5053103;28;20063;-51
2023/06/28 05:30:36;;;;;;;10.60;5.07;;;14.40;99.90;;;;;;5054191;28;20328;-48
2023/06/28 05:33:02;;;;;;;8.15;5.68;;;14.60;99.90;;;;;;5054200;28;20574;-48
2023/06/28 05:35:32;;;;;;;10.48;6.07;;;14.50;99.90;;;;;;5053179;28;20068;-47
2023/06/28 05:37:59;;;;;;;11.55;5.75;;;14.60;99.90;;;;;;5054141;28;20063;-47
2023/06/28 05:40:26;;;;;;;8.23;5.32;;;14.80;99.90;;;;;;5054699;28;20108;-49
2023/06/28 05:42:53;;;;;;;10.63;5.90;;;14.60;99.90;;;;;;5053999;28;20117;-52
2023/06/28 05:45:20;;;;;;;9.75;6.18;;;14.70;99.90;;;;;;5053891;28;20102;-47
2023/06/28 05:47:46;;;;;;;11.32;5.90;;;14.60;99.90;;;;;;5053828;28;20044;-48
2023/06/28 05:50:12;;;;;;;8.68;5.35;;;14.80;99.90;;;;;;5052616;28;20045;-48
2023/06/28 05:52:38;;;;;;;9.68;5.78;;;14.90;99.90;;;;;;5065764;28;20563;-48
2023/06/28 05:55:04;;;;;;;9.45;5.97;;;14.70;99.90;;;;;;5072858;28;20306;-48
2023/06/28 05:57:29;;;;;;;11.77;5.70;;;14.90;99.90;;;;;;5073803;28;20538;-49
2023/06/28 05:59:55;;;;;;;12.27;6.30;;;14.90;99.90;;;;;;5072839;28;20040;-48
2023/06/28 06:02:22;;;;;;;14.10;6.95;;;15.00;99.90;;;;;;5073662;28;20059;-53
2023/06/28 06:04:47;;;;;;;12.95;6.30;;;14.90;99.90;;;;;;5073820;28;20535;-51
2023/06/28 06:07:13;;;;;;;12.02;6.28;;;14.80;99.90;;;;;;5074918;28;20047;-49
2023/06/28 06:09:39;;;;;;;13.00;6.13;;;15.00;99.90;;;;;;5074327;28;20224;-52
2023/06/28 06:12:05;;;;;;;10.90;5.55;;;15.10;99.90;;;;;;5073270;28;20034;-48
2023/06/28 06:14:33;;;;;;;11.57;5.85;;;15.00;99.90;;;;;;5075561;28;20054;-52
2023/06/28 06:16:58;;;;;;;8.65;6.22;;;15.00;99.90;;;;;;5075442;28;20449;-49
2023/06/28 06:19:24;;;;;;;12.18;6.18;;;14.90;99.90;;;;;;5074818;28;20043;-51
2023/06/28 06:21:50;;;;;;;15.02;6.95;;;15.00;99.90;;;;;;5074901;28;20043;-52
2023/06/28 06:24:15;;;;;;;14.43;7.07;;;15.00;99.90;;;;;;5057330;28;20047;-51
2023/06/28 06:26:41;;;;;;;12.18;6.97;;;15.00;99.90;;;;;;5056290;28;20060;-52
2023/06/28 06:29:07;;;;;;;11.75;6.65;;;15.10;99.90;;;;;;5074982;28;20128;-49
2023/06/28 06:31:33;;;;;;;13.15;6.28;;;15.00;99.90;;;;;;5074478;28;20043;-52
2023/06/28 06:34:01;;;;;;;12.38;7.25;;;15.10;99.90;;;;;;5036664;28;20062;-51
2023/06/28 06:36:27;;;;;;;12.55;7.05;;;15.00;99.90;;;;;;5056121;28;20054;-51
2023/06/28 06:38:57;;;;;;;12.10;7.07;;;15.10;99.90;;;;;;5075237;28;20590;-52
2023/06/28 06:41:23;;;;;;;14.65;7.38;;;15.00;99.90;;;;;;5057967;28;20173;-52
2023/06/28 06:43:52;;;;;;;10.55;6.32;;;15.20;99.90;;;;;;5074440;28;20089;-49
2023/06/28 06:46:20;;;;;;;11.00;6.60;;;15.10;99.90;;;;;;5073656;28;20071;-53
2023/06/28 06:48:46;;;;;;;12.77;7.05;;;14.90;99.90;;;;;;5072834;28;20044;-48
2023/06/28 06:51:12;;;;;;;14.40;6.63;;;15.00;99.90;;;;;;5073685;28;20040;-49
2023/06/28 06:53:37;;;;;;;13.55;7.10;;;15.00;99.90;;;;;;5073495;28;20420;-53
2023/06/28 06:56:04;;;;;;;13.45;6.93;;;15.10;99.90;;;;;;5055076;28;20132;-51
2023/06/28 06:58:30;;;;;;;15.13;6.85;;;15.00;99.90;;;;;;5074004;28;20044;-51
2023/06/28 07:00:56;;;;;;;12.52;7.47;;;15.10;99.90;;;;;;5072483;28;20051;-53
2023/06/28 07:03:22;;;;;;;14.90;7.97;;;15.30;99.90;;;;;;5072923;28;20050;-50
2023/06/28 07:05:47;;;;;;;15.40;7.88;;;15.10;99.90;;;;;;5073564;28;20048;-51
2023/06/28 07:08:13;;;;;;;13.00;7.38;;;15.10;99.90;;;;;;5072689;28;20036;-48
2023/06/28 07:10:39;;;;;;;14.73;7.57;;;15.20;99.90;;;;;;5072397;28;20043;-48
2023/06/28 07:13:05;;;;;;;18.75;8.75;;;15.10;99.90;;;;;;5072837;28;20040;-50
2023/06/28 07:15:30;;;;;;;16.42;7.82;;;15.30;99.90;;;;;;5073188;28;20044;-47
2023/06/28 07:17:56;;;;;;;14.50;7.32;;;15.20;99.90;;;;;;5072096;28;20043;-51
2023/06/28 07:20:22;;;;;;;13.57;7.47;;;15.20;99.90;;;;;;5053900;28;20034;-48
2023/06/28 07:22:48;;;;;;;16.42;7.38;;;15.40;99.90;;;;;;5073558;28;20550;-49
2023/06/28 07:25:14;;;;;;;18.52;7.57;;;15.10;99.90;;;;;;5073013;28;20043;-48
2023/06/28 07:27:39;;;;;;;16.45;7.03;;;15.50;99.90;;;;;;5073048;28;20043;-51
2023/06/28 07:30:07;;;;;;;16.95;7.95;;;15.40;99.90;;;;;;5054161;28;20397;-48
2023/06/28 07:32:33;;;;;;;15.18;7.80;;;15.50;99.90;;;;;;5053596;28;20399;-48
2023/06/28 07:34:59;;;;;;;11.15;6.68;;;15.50;99.90;;;;;;5072652;28;20110;-49
2023/06/28 07:37:25;;;;;;;16.50;7.88;;;15.50;99.90;;;;;;5072649;28;20142;-48
2023/06/28 07:39:51;;;;;;;19.88;9.27;;;15.60;99.90;;;;;;5072240;28;20065;-52
2023/06/28 07:42:18;;;;;;;23.38;9.55;;;15.50;99.90;;;;;;5073020;28;20409;-52
2023/06/28 07:44:44;;;;;;;15.73;7.47;;;15.50;99.90;;;;;;5073296;28;20083;-52
2023/06/28 07:47:10;;;;;;;15.95;7.97;;;15.60;99.90;;;;;;5073703;28;20115;-51
2023/06/28 07:49:36;;;;;;;18.05;7.50;;;15.80;99.90;;;;;;5071930;28;20039;-48
2023/06/28 07:52:01;;;;;;;17.13;8.55;;;15.90;99.90;;;;;;5055148;28;20056;-48
2023/06/28 07:54:27;;;;;;;12.00;7.40;;;15.70;99.90;;;;;;5074430;28;20040;-49
2023/06/28 07:56:53;;;;;;;13.35;7.25;;;15.70;99.90;;;;;;5072310;28;20637;-51
2023/06/28 07:59:20;;;;;;;16.17;8.30;;;15.60;99.90;;;;;;5071664;28;20052;-53
2023/06/28 08:01:46;;;;;;;18.88;7.80;;;15.70;99.90;;;;;;5071976;28;20044;-49
2023/06/28 08:04:15;;;;;;;12.48;7.70;;;15.70;99.90;;;;;;5072400;28;20042;-47
2023/06/28 08:06:41;;;;;;;17.13;8.32;;;15.70;99.90;;;;;;5073137;28;20439;-49
2023/06/28 08:09:07;;;;;;;12.95;7.38;;;16.00;99.90;;;;;;5071153;28;20052;-48
2023/06/28 08:11:33;;;;;;;13.35;8.00;;;16.00;99.90;;;;;;5071286;28;22560;-53
2023/06/28 08:13:59;;;;;;;11.23;7.80;;;15.80;99.90;;;;;;5072333;28;20040;-48
2023/06/28 08:16:25;;;;;;;13.95;8.27;;;15.70;99.90;;;;;;5071225;28;20058;-52
2023/06/28 08:18:50;;;;;;;12.05;7.65;;;15.80;99.90;;;;;;5071555;28;20032;-50
2023/06/28 08:21:16;;;;;;;17.92;8.27;;;15.80;99.90;;;;;;5071987;28;20043;-49
2023/06/28 08:23:42;;;;;;;16.73;8.88;;;15.80;99.90;;;;;;5073811;28;20047;-50
2023/06/28 08:26:08;;;;;;;16.52;8.70;;;15.80;99.90;;;;;;5053369;28;20051;-50
2023/06/28 08:28:33;;;;;;;12.85;7.45;;;15.70;99.90;;;;;;5053487;28;20036;-49
2023/06/28 08:30:59;;;;;;;13.05;7.63;;;15.80;99.90;;;;;;5072173;28;20051;-48
2023/06/28 08:33:25;;;;;;;13.73;8.18;;;15.90;99.90;;;;;;5071978;28;20047;-49
2023/06/28 08:35:51;;;;;;;13.35;8.38;;;14.10;99.90;;;;;;5054225;28;20418;-48
2023/06/28 08:38:17;;;;;;;14.32;8.60;;;15.80;99.90;;;;;;5070954;28;20258;-51
2023/06/28 08:40:43;;;;;;;17.23;9.30;;;15.80;99.90;;;;;;5073312;28;20123;-51
2023/06/28 08:43:14;;;;;;;13.70;8.65;;;15.90;99.90;;;;;;5071770;28;20040;-48
2023/06/28 08:45:42;;;;;;;17.95;9.75;;;15.90;99.90;;;;;;5072050;28;20067;-52
2023/06/28 08:48:08;;;;;;;15.77;9.48;;;15.80;99.90;;;;;;5071046;28;20469;-48
2023/06/28 08:50:35;;;;;;;17.10;10.40;;;15.80;99.90;;;;;;5072035;28;20036;-47
2023/06/28 08:53:04;;;;;;;14.18;10.15;;;15.90;99.90;;;;;;5072859;28;20110;-48
2023/06/28 08:55:30;;;;;;;17.67;10.70;;;15.80;99.90;;;;;;5073165;28;20043;-51
2023/06/28 08:57:57;;;;;;;15.57;9.85;;;15.90;99.90;;;;;;5073242;28;20044;-51
2023/06/28 09:00:23;;;;;;;18.80;11.65;;;15.90;99.90;;;;;;5075688;28;20127;-49
2023/06/28 09:02:49;;;;;;;20.95;11.98;;;15.90;99.90;;;;;;5056594;28;20032;-48
2023/06/28 09:05:17;;;;;;;24.08;11.63;;;15.90;99.90;;;;;;5076514;28;20044;-50
2023/06/28 09:07:45;;;;;;;19.92;10.57;;;16.00;99.90;;;;;;5076744;28;20920;-49
2023/06/28 09:10:11;;;;;;;18.92;11.05;;;15.90;99.90;;;;;;5074572;28;20127;-48
2023/06/28 09:12:40;;;;;;;22.98;11.05;;;16.00;99.90;;;;;;5056525;28;20116;-48
2023/06/28 09:15:07;;;;;;;19.95;11.55;;;16.10;99.90;;;;;;5056640;28;20063;-49
2023/06/28 09:17:32;;;;;;;20.08;11.27;;;16.30;99.90;;;;;;5076158;28;20111;-48
2023/06/28 09:20:18;;;;;;;20.45;11.93;;;16.10;99.90;;;;;;5074213;28;20039;-48
2023/06/28 09:23:02;;;;;;;19.48;11.98;;;16.00;99.90;;;;;;5075000;28;20040;-51
2023/06/28 09:25:31;;;;;;;21.30;11.70;;;16.30;99.90;;;;;;5074855;28;20403;-48
2023/06/28 09:27:57;;;;;;;17.40;11.60;;;16.30;99.90;;;;;;5074916;28;21220;-48
2023/06/28 09:30:23;;;;;;;15.80;10.73;;;16.00;99.90;;;;;;5075032;28;20067;-48
2023/06/28 09:32:51;;;;;;;19.27;12.00;;;16.00;99.90;;;;;;5074225;28;20582;-47
2023/06/28 09:35:21;;;;;;;16.83;11.02;;;16.10;99.90;;;;;;5074144;28;20421;-50
2023/06/28 09:37:54;;;;;;;18.55;11.57;;;16.10;99.90;;;;;;5074315;28;20040;-52
2023/06/28 09:40:20;;;;;;;15.70;11.95;;;16.20;99.90;;;;;;5074158;28;20533;-48
2023/06/28 09:42:48;;;;;;;21.63;13.40;;;16.10;99.90;;;;;;5075233;28;20122;-48
2023/06/28 09:45:47;;;;;;;17.80;12.25;;;16.20;99.90;;;;;;5075916;28;20210;-48
2023/06/28 09:48:12;;;;;;;20.17;12.00;;;16.30;99.90;;;;;;5028877;28;20401;-52
2023/06/28 09:50:45;;;;;;;19.65;12.70;;;16.20;99.90;;;;;;5074361;28;20131;-50
2023/06/28 09:53:15;;;;;;;14.15;11.07;;;16.00;99.90;;;;;;5072308;28;20052;-52
2023/06/28 09:55:46;;;;;;;17.55;12.43;;;16.10;99.90;;;;;;5056400;28;20048;-48
2023/06/28 09:58:14;;;;;;;18.05;13.25;;;16.10;99.90;;;;;;5056659;28;20044;-48
2023/06/28 10:00:41;;;;;;;24.77;13.07;;;16.10;99.90;;;;;;5075434;28;20134;-48
2023/06/28 10:03:12;;;;;;;18.02;11.82;;;16.40;99.90;;;;;;5075213;28;20325;-47
2023/06/28 10:05:40;;;;;;;17.48;13.05;;;16.30;99.90;;;;;;5075378;28;20082;-52
2023/06/28 10:08:09;;;;;;;17.30;12.80;;;16.60;99.90;;;;;;5074400;28;20119;-50
2023/06/28 10:10:37;;;;;;;15.15;11.85;;;16.50;99.90;;;;;;5073608;28;20101;-52
2023/06/28 10:13:04;;;;;;;21.23;11.68;;;16.40;99.90;;;;;;5055789;28;20044;-48
2023/06/28 10:15:48;;;;;;;17.35;11.65;;;16.80;99.90;;;;;;5056187;28;20056;-50
2023/06/28 10:18:15;;;;;;;16.60;12.18;;;16.70;99.90;;;;;;5056462;28;20032;-48
2023/06/28 10:20:42;;;;;;;17.40;11.00;;;16.60;99.90;;;;;;5074289;28;20047;-49
2023/06/28 10:23:11;;;;;;;17.15;11.90;;;16.90;99.90;;;;;;5074531;28;20105;-49
2023/06/28 10:25:39;;;;;;;19.08;11.70;;;16.80;99.90;;;;;;5056043;28;20397;-50
2023/06/28 10:28:05;;;;;;;17.08;11.25;;;16.70;99.90;;;;;;5074301;28;20052;-49
2023/06/28 10:30:32;;;;;;;19.05;12.88;;;17.00;99.90;;;;;;5073651;28;20516;-51
2023/06/28 10:32:59;;;;;;;17.83;12.55;;;16.90;99.90;;;;;;5072306;28;20260;-52
2023/06/28 10:35:26;;;;;;;18.98;13.15;;;17.00;99.90;;;;;;5073059;28;20038;-49
2023/06/28 10:37:59;;;;;;;17.17;12.40;;;16.80;99.90;;;;;;5038863;28;20119;-49
2023/06/28 10:40:25;;;;;;;23.20;12.82;;;16.60;99.90;;;;;;5073021;28;20048;-51
2023/06/28 10:42:51;;;;;;;21.85;12.68;;;16.90;99.90;;;;;;5073791;28;20040;-50
2023/06/28 10:45:17;;;;;;;19.55;12.23;;;16.90;99.90;;;;;;5073283;28;20048;-52
2023/06/28 10:47:55;;;;;;;16.45;12.52;;;16.80;99.90;;;;;;5073138;28;20079;-52
2023/06/28 10:50:22;;;;;;;18.33;12.88;;;16.70;99.90;;;;;;5037926;28;20036;-51
2023/06/28 10:52:51;;;;;;;15.95;13.13;;;16.80;99.90;;;;;;5072654;28;20040;-52
2023/06/28 10:56:03;;;;;;;19.27;12.88;;;16.70;99.90;;;;;;5073489;28;20056;-52
2023/06/28 10:58:28;;;;;;;17.23;13.15;;;16.70;99.90;;;;;;5072153;28;20055;-51
2023/06/28 11:00:55;;;;;;;17.05;13.48;;;16.80;99.90;;;;;;5072630;28;21039;-53
2023/06/28 11:03:21;;;;;;;17.00;13.63;;;16.60;99.90;;;;;;5074359;28;20398;-50
2023/06/28 11:05:56;;;;;;;18.38;13.18;;;16.60;99.90;;;;;;5072717;28;20040;-48
2023/06/28 11:08:43;;;;;;;18.00;12.88;;;16.60;99.90;;;;;;5074183;28;20054;-51
2023/06/28 11:11:21;;;;;;;17.02;14.15;;;16.60;99.90;;;;;;5072261;28;20057;-49
2023/06/28 11:13:48;;;;;;;18.10;13.43;;;16.60;99.90;;;;;;5072857;28;20051;-48
2023/06/28 11:16:24;;;;;;;19.60;14.57;;;16.70;99.90;;;;;;5072598;28;20039;-49
2023/06/28 11:18:51;;;;;;;19.67;14.70;;;16.60;99.90;;;;;;5072610;28;20044;-48
2023/06/28 11:21:26;;;;;;;19.08;15.02;;;16.40;99.90;;;;;;5072198;28;20751;-51
2023/06/28 11:23:54;;;;;;;19.05;15.68;;;16.80;99.90;;;;;;5038966;28;20071;-50
2023/06/28 11:26:37;;;;;;;18.50;15.80;;;16.70;99.90;;;;;;5054671;28;20048;-52
2023/06/28 11:29:17;;;;;;;22.80;16.83;;;16.80;99.90;;;;;;5054502;28;20108;-53
2023/06/28 11:31:50;;;;;;;28.20;17.15;;;16.80;99.90;;;;;;5073529;28;20527;-52
2023/06/28 11:34:17;;;;;;;23.52;16.63;;;16.80;99.90;;;;;;5073160;28;20051;-49
2023/06/28 11:36:44;;;;;;;26.25;17.77;;;16.60;99.90;;;;;;5072669;28;20484;-49
2023/06/28 11:39:17;;;;;;;18.85;16.33;;;17.00;99.90;;;;;;5054744;28;20476;-50
2023/06/28 11:41:44;;;;;;;22.73;17.42;;;16.80;99.90;;;;;;5072419;28;20044;-50
2023/06/28 11:44:12;;;;;;;20.55;15.75;;;16.80;99.90;;;;;;5072459;28;20426;-50
2023/06/28 11:46:39;;;;;;;20.40;16.88;;;16.90;99.90;;;;;;5072232;28;20123;-50
2023/06/28 11:49:04;;;;;;;25.90;19.00;;;17.00;99.90;;;;;;5072458;28;20048;-47
2023/06/28 11:51:31;;;;;;;23.48;17.98;;;17.10;99.90;;;;;;5072188;28;20505;-49
2023/06/28 11:53:57;;;;;;;24.63;18.98;;;16.90;99.90;;;;;;5072478;28;20047;-48
2023/06/28 11:56:39;;;;;;;25.98;19.73;;;17.00;99.90;;;;;;5054172;28;20275;-49
2023/06/28 11:59:34;;;;;;;24.25;18.63;;;16.80;99.90;;;;;;5072333;28;20453;-50
2023/06/28 12:02:05;;;;;;;23.25;19.30;;;16.90;99.90;;;;;;5058931;28;20048;-51
2023/06/28 12:04:32;;;;;;;22.65;19.15;;;17.00;99.90;;;;;;5071536;28;20040;-51
2023/06/28 12:07:04;;;;;;;24.58;19.40;;;16.90;99.90;;;;;;5070999;28;20630;-52
2023/06/28 12:09:31;;;;;;;23.42;18.27;;;16.90;99.90;;;;;;5072306;28;20386;-49
2023/06/28 12:12:05;;;;;;;28.25;21.23;;;16.80;99.90;;;;;;5070885;28;20109;-51
2023/06/28 12:14:38;;;;;;;28.08;21.65;;;17.00;99.90;;;;;;5071488;28;20501;-53
2023/06/28 12:17:04;;;;;;;28.90;22.80;;;17.00;99.90;;;;;;5071464;28;20047;-51
2023/06/28 12:19:33;;;;;;;29.08;22.20;;;15.00;99.90;;;;;;5070587;28;20134;-52
2023/06/28 12:22:07;;;;;;;26.45;22.40;;;17.10;99.90;;;;;;5071415;28;20036;-51
2023/06/28 12:24:37;;;;;;;29.40;21.75;;;16.90;99.90;;;;;;5073393;28;20123;-48
2023/06/28 12:27:05;;;;;;;25.80;21.92;;;17.10;99.90;;;;;;5071503;28;20381;-53
2023/06/28 12:29:36;;;;;;;28.35;22.55;;;17.10;99.90;;;;;;5071595;28;20726;-55
2023/06/28 12:32:11;;;;;;;30.83;25.25;;;17.20;99.90;;;;;;5071262;28;20109;-53
2023/06/28 12:34:38;;;;;;;28.88;24.85;;;17.20;99.90;;;;;;5075086;28;20083;-52
2023/06/28 12:37:09;;;;;;;30.33;25.08;;;17.10;99.90;;;;;;5075417;28;20052;-51